sensor_id;sensor_type;location;lat;lon;timestamp;P1;durP1;ratioP1;P2;durP2;ratioP2
53654;SDS011;39558;52.028;8.536;2023-02-24T00:01:31;8.90;;;4.03;;
53654;SDS011;39558;52.028;8.536;2023-02-24T00:04:01;7.00;;;3.10;;
53654;SDS011;39558;52.028;8.536;2023-02-24T00:06:28;5.50;;;2.97;;
53654;SDS011;39558;52.028;8.536;2023-02-24T00:09:04;6.22;;;3.38;;
53654;SDS011;39558;52.028;8.536;2023-02-24T00:11:31;6.30;;;2.88;;
53654;SDS011;39558;52.028;8.536;2023-02-24T00:13:57;6.07;;;3.08;;
53654;SDS011;39558;52.028;8.536;2023-02-24T00:16:23;7.38;;;3.28;;
53654;SDS011;39558;52.028;8.536;2023-02-24T00:18:50;6.68;;;3.45;;
53654;SDS011;39558;52.028;8.536;2023-02-24T00:21:18;6.10;;;3.10;;
53654;SDS011;39558;52.028;8.536;2023-02-24T00:23:45;6.28;;;3.45;;
53654;SDS011;39558;52.028;8.536;2023-02-24T00:26:12;5.70;;;2.85;;
53654;SDS011;39558;52.028;8.536;2023-02-24T00:28:38;6.32;;;3.30;;
53654;SDS011;39558;52.028;8.536;2023-02-24T00:31:06;5.93;;;3.20;;
53654;SDS011;39558;52.028;8.536;2023-02-24T00:33:32;7.82;;;3.70;;
53654;SDS011;39558;52.028;8.536;2023-02-24T00:38:30;5.72;;;2.38;;
53654;SDS011;39558;52.028;8.536;2023-02-24T00:40:59;4.40;;;2.60;;
53654;SDS011;39558;52.028;8.536;2023-02-24T00:43:26;4.85;;;2.38;;
53654;SDS011;39558;52.028;8.536;2023-02-24T00:45:52;6.43;;;3.50;;
53654;SDS011;39558;52.028;8.536;2023-02-24T00:48:18;4.88;;;2.47;;
53654;SDS011;39558;52.028;8.536;2023-02-24T00:50:44;5.75;;;2.97;;
53654;SDS011;39558;52.028;8.536;2023-02-24T00:53:09;4.45;;;2.40;;
53654;SDS011;39558;52.028;8.536;2023-02-24T00:55:35;4.93;;;2.55;;
53654;SDS011;39558;52.028;8.536;2023-02-24T00:58:02;4.97;;;2.33;;
53654;SDS011;39558;52.028;8.536;2023-02-24T01:00:29;5.20;;;2.33;;
53654;SDS011;39558;52.028;8.536;2023-02-24T01:02:59;4.88;;;2.30;;
53654;SDS011;39558;52.028;8.536;2023-02-24T01:05:25;5.25;;;2.38;;
53654;SDS011;39558;52.028;8.536;2023-02-24T01:07:52;6.00;;;2.35;;
53654;SDS011;39558;52.028;8.536;2023-02-24T01:10:18;6.18;;;2.53;;
53654;SDS011;39558;52.028;8.536;2023-02-24T01:12:47;4.32;;;2.00;;
53654;SDS011;39558;52.028;8.536;2023-02-24T01:17:43;5.10;;;2.22;;
53654;SDS011;39558;52.028;8.536;2023-02-24T01:20:10;4.28;;;2.00;;
53654;SDS011;39558;52.028;8.536;2023-02-24T01:22:41;4.60;;;2.30;;
53654;SDS011;39558;52.028;8.536;2023-02-24T01:25:07;5.75;;;2.38;;
53654;SDS011;39558;52.028;8.536;2023-02-24T01:27:33;6.32;;;2.53;;
53654;SDS011;39558;52.028;8.536;2023-02-24T01:30:04;4.30;;;2.03;;
53654;SDS011;39558;52.028;8.536;2023-02-24T01:32:30;4.03;;;2.00;;
53654;SDS011;39558;52.028;8.536;2023-02-24T01:34:56;3.65;;;1.80;;
53654;SDS011;39558;52.028;8.536;2023-02-24T01:37:23;3.92;;;2.03;;
53654;SDS011;39558;52.028;8.536;2023-02-24T01:39:49;5.30;;;1.75;;
53654;SDS011;39558;52.028;8.536;2023-02-24T01:42:17;3.30;;;1.67;;
53654;SDS011;39558;52.028;8.536;2023-02-24T01:47:09;4.85;;;1.85;;
53654;SDS011;39558;52.028;8.536;2023-02-24T01:49:39;5.00;;;1.92;;
53654;SDS011;39558;52.028;8.536;2023-02-24T01:54:33;4.40;;;2.15;;
53654;SDS011;39558;52.028;8.536;2023-02-24T01:57:00;4.45;;;1.98;;
53654;SDS011;39558;52.028;8.536;2023-02-24T01:59:29;4.97;;;2.28;;
53654;SDS011;39558;52.028;8.536;2023-02-24T02:01:59;5.20;;;2.38;;
53654;SDS011;39558;52.028;8.536;2023-02-24T02:04:39;3.17;;;1.58;;
53654;SDS011;39558;52.028;8.536;2023-02-24T02:07:10;4.68;;;2.10;;
53654;SDS011;39558;52.028;8.536;2023-02-24T02:09:37;3.70;;;1.70;;
53654;SDS011;39558;52.028;8.536;2023-02-24T02:12:05;3.40;;;1.85;;
53654;SDS011;39558;52.028;8.536;2023-02-24T02:14:31;4.20;;;1.98;;
53654;SDS011;39558;52.028;8.536;2023-02-24T02:17:00;3.80;;;1.83;;
53654;SDS011;39558;52.028;8.536;2023-02-24T02:22:25;4.30;;;1.35;;
53654;SDS011;39558;52.028;8.536;2023-02-24T02:24:59;2.70;;;1.10;;
53654;SDS011;39558;52.028;8.536;2023-02-24T02:27:32;3.53;;;1.17;;
53654;SDS011;39558;52.028;8.536;2023-02-24T02:32:56;3.95;;;1.60;;
53654;SDS011;39558;52.028;8.536;2023-02-24T02:35:31;6.05;;;1.70;;
53654;SDS011;39558;52.028;8.536;2023-02-24T02:38:09;4.78;;;1.70;;
53654;SDS011;39558;52.028;8.536;2023-02-24T02:40:51;3.65;;;1.50;;
53654;SDS011;39558;52.028;8.536;2023-02-24T02:43:30;4.00;;;1.92;;
53654;SDS011;39558;52.028;8.536;2023-02-24T02:48:27;3.63;;;1.60;;
53654;SDS011;39558;52.028;8.536;2023-02-24T02:50:57;4.80;;;1.92;;
53654;SDS011;39558;52.028;8.536;2023-02-24T02:53:34;3.92;;;1.63;;
53654;SDS011;39558;52.028;8.536;2023-02-24T02:56:09;3.08;;;1.30;;
53654;SDS011;39558;52.028;8.536;2023-02-24T02:58:38;3.22;;;1.27;;
53654;SDS011;39558;52.028;8.536;2023-02-24T03:01:05;3.55;;;1.83;;
53654;SDS011;39558;52.028;8.536;2023-02-24T03:03:33;4.05;;;2.00;;
53654;SDS011;39558;52.028;8.536;2023-02-24T03:06:23;4.72;;;1.48;;
53654;SDS011;39558;52.028;8.536;2023-02-24T03:08:49;2.90;;;1.23;;
53654;SDS011;39558;52.028;8.536;2023-02-24T03:11:16;4.63;;;1.63;;
53654;SDS011;39558;52.028;8.536;2023-02-24T03:13:44;3.33;;;1.33;;
53654;SDS011;39558;52.028;8.536;2023-02-24T03:16:13;3.33;;;1.05;;
53654;SDS011;39558;52.028;8.536;2023-02-24T03:18:45;4.05;;;1.55;;
53654;SDS011;39558;52.028;8.536;2023-02-24T03:21:16;3.03;;;1.27;;
53654;SDS011;39558;52.028;8.536;2023-02-24T03:23:43;3.20;;;1.50;;
53654;SDS011;39558;52.028;8.536;2023-02-24T03:26:12;4.75;;;1.70;;
53654;SDS011;39558;52.028;8.536;2023-02-24T03:28:47;4.18;;;1.00;;
53654;SDS011;39558;52.028;8.536;2023-02-24T03:31:15;5.00;;;1.65;;
53654;SDS011;39558;52.028;8.536;2023-02-24T03:33:45;3.63;;;1.30;;
53654;SDS011;39558;52.028;8.536;2023-02-24T03:36:14;3.55;;;1.27;;
53654;SDS011;39558;52.028;8.536;2023-02-24T03:38:39;4.30;;;1.60;;
53654;SDS011;39558;52.028;8.536;2023-02-24T03:41:07;4.57;;;1.48;;
53654;SDS011;39558;52.028;8.536;2023-02-24T03:43:35;3.00;;;1.30;;
53654;SDS011;39558;52.028;8.536;2023-02-24T03:46:03;6.80;;;1.38;;
53654;SDS011;39558;52.028;8.536;2023-02-24T03:48:29;3.10;;;1.17;;
53654;SDS011;39558;52.028;8.536;2023-02-24T03:50:56;3.70;;;0.98;;
53654;SDS011;39558;52.028;8.536;2023-02-24T03:53:30;3.35;;;1.10;;
53654;SDS011;39558;52.028;8.536;2023-02-24T03:58:51;5.70;;;1.00;;
53654;SDS011;39558;52.028;8.536;2023-02-24T04:01:31;4.32;;;1.48;;
53654;SDS011;39558;52.028;8.536;2023-02-24T04:04:16;5.13;;;1.95;;
53654;SDS011;39558;52.028;8.536;2023-02-24T04:06:45;3.60;;;1.33;;
53654;SDS011;39558;52.028;8.536;2023-02-24T04:09:33;4.00;;;1.17;;
53654;SDS011;39558;52.028;8.536;2023-02-24T04:12:03;3.20;;;1.25;;
53654;SDS011;39558;52.028;8.536;2023-02-24T04:14:36;3.33;;;1.00;;
53654;SDS011;39558;52.028;8.536;2023-02-24T04:17:05;4.47;;;1.13;;
53654;SDS011;39558;52.028;8.536;2023-02-24T04:19:33;2.15;;;0.82;;
53654;SDS011;39558;52.028;8.536;2023-02-24T04:22:02;2.85;;;1.10;;
53654;SDS011;39558;52.028;8.536;2023-02-24T04:24:29;4.03;;;1.00;;
53654;SDS011;39558;52.028;8.536;2023-02-24T04:26:56;3.17;;;1.55;;
53654;SDS011;39558;52.028;8.536;2023-02-24T04:29:23;3.80;;;1.08;;
53654;SDS011;39558;52.028;8.536;2023-02-24T04:31:51;4.88;;;1.25;;
53654;SDS011;39558;52.028;8.536;2023-02-24T04:34:18;3.75;;;1.05;;
53654;SDS011;39558;52.028;8.536;2023-02-24T04:36:45;4.25;;;1.25;;
53654;SDS011;39558;52.028;8.536;2023-02-24T04:39:15;3.03;;;0.73;;
53654;SDS011;39558;52.028;8.536;2023-02-24T04:41:42;5.40;;;1.30;;
53654;SDS011;39558;52.028;8.536;2023-02-24T04:44:09;2.95;;;0.98;;
53654;SDS011;39558;52.028;8.536;2023-02-24T04:46:35;3.53;;;1.25;;
53654;SDS011;39558;52.028;8.536;2023-02-24T04:49:01;2.22;;;0.77;;
53654;SDS011;39558;52.028;8.536;2023-02-24T04:51:27;4.05;;;1.63;;
53654;SDS011;39558;52.028;8.536;2023-02-24T04:53:55;3.42;;;1.27;;
53654;SDS011;39558;52.028;8.536;2023-02-24T04:56:21;3.78;;;1.00;;
53654;SDS011;39558;52.028;8.536;2023-02-24T04:58:47;3.22;;;1.10;;
53654;SDS011;39558;52.028;8.536;2023-02-24T05:01:13;3.13;;;0.98;;
53654;SDS011;39558;52.028;8.536;2023-02-24T05:03:39;2.60;;;1.10;;
53654;SDS011;39558;52.028;8.536;2023-02-24T05:06:15;2.58;;;0.68;;
53654;SDS011;39558;52.028;8.536;2023-02-24T05:08:41;3.83;;;1.23;;
53654;SDS011;39558;52.028;8.536;2023-02-24T05:11:10;3.53;;;1.15;;
53654;SDS011;39558;52.028;8.536;2023-02-24T05:13:39;3.80;;;1.55;;
53654;SDS011;39558;52.028;8.536;2023-02-24T05:16:09;3.45;;;1.00;;
53654;SDS011;39558;52.028;8.536;2023-02-24T05:18:35;2.50;;;0.75;;
53654;SDS011;39558;52.028;8.536;2023-02-24T05:21:03;2.78;;;0.90;;
53654;SDS011;39558;52.028;8.536;2023-02-24T05:23:48;3.05;;;1.45;;
53654;SDS011;39558;52.028;8.536;2023-02-24T05:26:16;4.65;;;0.90;;
53654;SDS011;39558;52.028;8.536;2023-02-24T05:28:42;3.00;;;0.75;;
53654;SDS011;39558;52.028;8.536;2023-02-24T05:31:12;3.42;;;1.00;;
53654;SDS011;39558;52.028;8.536;2023-02-24T05:36:07;4.15;;;1.35;;
53654;SDS011;39558;52.028;8.536;2023-02-24T05:38:34;3.03;;;0.90;;
53654;SDS011;39558;52.028;8.536;2023-02-24T05:41:07;4.30;;;0.93;;
53654;SDS011;39558;52.028;8.536;2023-02-24T05:43:40;4.75;;;1.02;;
53654;SDS011;39558;52.028;8.536;2023-02-24T05:46:06;4.88;;;0.80;;
53654;SDS011;39558;52.028;8.536;2023-02-24T05:48:33;2.25;;;0.77;;
53654;SDS011;39558;52.028;8.536;2023-02-24T05:50:59;3.35;;;0.80;;
53654;SDS011;39558;52.028;8.536;2023-02-24T05:53:26;2.20;;;0.60;;
53654;SDS011;39558;52.028;8.536;2023-02-24T05:55:51;4.47;;;0.88;;
53654;SDS011;39558;52.028;8.536;2023-02-24T05:58:17;2.28;;;0.70;;
53654;SDS011;39558;52.028;8.536;2023-02-24T06:00:43;2.70;;;0.80;;
53654;SDS011;39558;52.028;8.536;2023-02-24T06:03:10;3.80;;;0.80;;
53654;SDS011;39558;52.028;8.536;2023-02-24T06:05:41;2.92;;;1.10;;
53654;SDS011;39558;52.028;8.536;2023-02-24T06:08:07;3.60;;;1.17;;
53654;SDS011;39558;52.028;8.536;2023-02-24T06:10:36;3.85;;;0.82;;
53654;SDS011;39558;52.028;8.536;2023-02-24T06:13:05;3.00;;;0.90;;
53654;SDS011;39558;52.028;8.536;2023-02-24T06:15:31;1.52;;;0.63;;
53654;SDS011;39558;52.028;8.536;2023-02-24T06:17:58;3.13;;;0.98;;
53654;SDS011;39558;52.028;8.536;2023-02-24T06:20:26;5.53;;;1.10;;
53654;SDS011;39558;52.028;8.536;2023-02-24T06:22:52;3.97;;;0.93;;
53654;SDS011;39558;52.028;8.536;2023-02-24T06:25:21;2.80;;;0.93;;
53654;SDS011;39558;52.028;8.536;2023-02-24T06:27:50;2.85;;;0.90;;
53654;SDS011;39558;52.028;8.536;2023-02-24T06:30:18;1.58;;;0.70;;
53654;SDS011;39558;52.028;8.536;2023-02-24T06:32:45;2.92;;;1.02;;
53654;SDS011;39558;52.028;8.536;2023-02-24T06:35:12;2.15;;;0.90;;
53654;SDS011;39558;52.028;8.536;2023-02-24T06:37:38;4.22;;;0.88;;
53654;SDS011;39558;52.028;8.536;2023-02-24T06:40:05;2.95;;;1.00;;
53654;SDS011;39558;52.028;8.536;2023-02-24T06:42:46;2.65;;;0.80;;
53654;SDS011;39558;52.028;8.536;2023-02-24T06:45:13;4.80;;;0.70;;
53654;SDS011;39558;52.028;8.536;2023-02-24T06:47:39;2.28;;;0.50;;
53654;SDS011;39558;52.028;8.536;2023-02-24T06:50:07;3.78;;;0.90;;
53654;SDS011;39558;52.028;8.536;2023-02-24T06:52:34;2.05;;;0.90;;
53654;SDS011;39558;52.028;8.536;2023-02-24T06:55:00;2.33;;;0.73;;
53654;SDS011;39558;52.028;8.536;2023-02-24T06:57:28;1.85;;;0.60;;
53654;SDS011;39558;52.028;8.536;2023-02-24T06:59:56;2.08;;;0.70;;
53654;SDS011;39558;52.028;8.536;2023-02-24T07:02:22;1.98;;;0.82;;
53654;SDS011;39558;52.028;8.536;2023-02-24T07:04:53;3.65;;;0.93;;
53654;SDS011;39558;52.028;8.536;2023-02-24T07:07:22;1.85;;;0.75;;
53654;SDS011;39558;52.028;8.536;2023-02-24T07:09:48;3.70;;;0.75;;
53654;SDS011;39558;52.028;8.536;2023-02-24T07:12:15;2.25;;;0.65;;
53654;SDS011;39558;52.028;8.536;2023-02-24T07:14:44;1.75;;;0.50;;
53654;SDS011;39558;52.028;8.536;2023-02-24T07:17:15;3.25;;;0.80;;
53654;SDS011;39558;52.028;8.536;2023-02-24T07:19:42;1.98;;;0.70;;
53654;SDS011;39558;52.028;8.536;2023-02-24T07:22:08;2.65;;;0.88;;
53654;SDS011;39558;52.028;8.536;2023-02-24T07:24:35;2.95;;;0.57;;
53654;SDS011;39558;52.028;8.536;2023-02-24T07:27:07;2.65;;;0.80;;
53654;SDS011;39558;52.028;8.536;2023-02-24T07:29:34;3.00;;;0.57;;
53654;SDS011;39558;52.028;8.536;2023-02-24T07:32:01;3.28;;;0.68;;
53654;SDS011;39558;52.028;8.536;2023-02-24T07:34:28;2.53;;;0.70;;
53654;SDS011;39558;52.028;8.536;2023-02-24T07:36:54;4.10;;;1.00;;
53654;SDS011;39558;52.028;8.536;2023-02-24T07:39:22;2.67;;;0.55;;
53654;SDS011;39558;52.028;8.536;2023-02-24T07:41:49;2.15;;;0.73;;
53654;SDS011;39558;52.028;8.536;2023-02-24T07:44:17;1.80;;;0.50;;
53654;SDS011;39558;52.028;8.536;2023-02-24T07:46:43;2.13;;;0.50;;
53654;SDS011;39558;52.028;8.536;2023-02-24T07:49:11;3.75;;;0.88;;
53654;SDS011;39558;52.028;8.536;2023-02-24T07:51:38;2.42;;;0.43;;
53654;SDS011;39558;52.028;8.536;2023-02-24T07:54:04;2.88;;;0.63;;
53654;SDS011;39558;52.028;8.536;2023-02-24T07:56:32;4.05;;;0.60;;
53654;SDS011;39558;52.028;8.536;2023-02-24T07:58:59;3.00;;;0.50;;
53654;SDS011;39558;52.028;8.536;2023-02-24T08:01:26;3.03;;;0.80;;
53654;SDS011;39558;52.028;8.536;2023-02-24T08:03:59;1.92;;;0.50;;
53654;SDS011;39558;52.028;8.536;2023-02-24T08:06:29;3.58;;;0.55;;
53654;SDS011;39558;52.028;8.536;2023-02-24T08:09:03;2.58;;;1.05;;
53654;SDS011;39558;52.028;8.536;2023-02-24T08:11:42;2.80;;;0.70;;
53654;SDS011;39558;52.028;8.536;2023-02-24T08:14:09;4.22;;;1.10;;
53654;SDS011;39558;52.028;8.536;2023-02-24T08:16:38;2.58;;;0.43;;
53654;SDS011;39558;52.028;8.536;2023-02-24T08:19:08;1.27;;;0.40;;
53654;SDS011;39558;52.028;8.536;2023-02-24T08:21:37;1.52;;;0.80;;
53654;SDS011;39558;52.028;8.536;2023-02-24T08:24:05;4.15;;;0.65;;
53654;SDS011;39558;52.028;8.536;2023-02-24T08:26:31;2.72;;;0.60;;
53654;SDS011;39558;52.028;8.536;2023-02-24T08:29:01;2.45;;;0.52;;
53654;SDS011;39558;52.028;8.536;2023-02-24T08:31:31;2.35;;;0.50;;
53654;SDS011;39558;52.028;8.536;2023-02-24T08:33:57;0.95;;;0.35;;
53654;SDS011;39558;52.028;8.536;2023-02-24T08:36:23;1.92;;;0.50;;
53654;SDS011;39558;52.028;8.536;2023-02-24T08:38:51;1.70;;;0.55;;
53654;SDS011;39558;52.028;8.536;2023-02-24T08:41:17;2.03;;;0.50;;
53654;SDS011;39558;52.028;8.536;2023-02-24T08:43:53;2.10;;;0.52;;
53654;SDS011;39558;52.028;8.536;2023-02-24T08:46:20;3.08;;;0.65;;
53654;SDS011;39558;52.028;8.536;2023-02-24T08:48:51;2.22;;;0.57;;
53654;SDS011;39558;52.028;8.536;2023-02-24T08:51:30;3.60;;;0.70;;
53654;SDS011;39558;52.028;8.536;2023-02-24T08:56:27;3.75;;;0.47;;
53654;SDS011;39558;52.028;8.536;2023-02-24T08:59:00;4.13;;;0.75;;
53654;SDS011;39558;52.028;8.536;2023-02-24T09:01:31;1.65;;;0.40;;
53654;SDS011;39558;52.028;8.536;2023-02-24T09:04:03;1.42;;;0.40;;
53654;SDS011;39558;52.028;8.536;2023-02-24T09:06:35;6.22;;;0.52;;
53654;SDS011;39558;52.028;8.536;2023-02-24T09:09:02;2.63;;;0.70;;
53654;SDS011;39558;52.028;8.536;2023-02-24T09:11:52;1.90;;;0.40;;
53654;SDS011;39558;52.028;8.536;2023-02-24T09:14:19;1.92;;;0.63;;
53654;SDS011;39558;52.028;8.536;2023-02-24T09:16:46;4.30;;;0.52;;
53654;SDS011;39558;52.028;8.536;2023-02-24T09:19:30;1.92;;;0.70;;
53654;SDS011;39558;52.028;8.536;2023-02-24T09:22:27;2.05;;;0.50;;
53654;SDS011;39558;52.028;8.536;2023-02-24T09:25:01;1.50;;;0.68;;
53654;SDS011;39558;52.028;8.536;2023-02-24T09:30:10;2.60;;;0.50;;
53654;SDS011;39558;52.028;8.536;2023-02-24T09:32:56;2.85;;;0.55;;
53654;SDS011;39558;52.028;8.536;2023-02-24T09:35:28;1.85;;;0.47;;
53654;SDS011;39558;52.028;8.536;2023-02-24T09:37:58;3.80;;;0.70;;
53654;SDS011;39558;52.028;8.536;2023-02-24T09:40:25;3.80;;;0.53;;
53654;SDS011;39558;52.028;8.536;2023-02-24T09:43:03;1.88;;;0.60;;
53654;SDS011;39558;52.028;8.536;2023-02-24T09:45:34;4.15;;;0.90;;
53654;SDS011;39558;52.028;8.536;2023-02-24T09:48:04;1.83;;;0.88;;
53654;SDS011;39558;52.028;8.536;2023-02-24T09:50:34;4.05;;;0.50;;
53654;SDS011;39558;52.028;8.536;2023-02-24T09:53:19;3.90;;;1.30;;
53654;SDS011;39558;52.028;8.536;2023-02-24T09:56:02;1.60;;;0.35;;
53654;SDS011;39558;52.028;8.536;2023-02-24T09:58:38;2.90;;;0.63;;
53654;SDS011;39558;52.028;8.536;2023-02-24T10:06:42;2.15;;;0.52;;
53654;SDS011;39558;52.028;8.536;2023-02-24T10:09:25;1.33;;;0.40;;
53654;SDS011;39558;52.028;8.536;2023-02-24T10:11:58;4.43;;;0.68;;
53654;SDS011;39558;52.028;8.536;2023-02-24T10:17:18;2.47;;;0.55;;
53654;SDS011;39558;52.028;8.536;2023-02-24T10:20:31;2.05;;;0.57;;
53654;SDS011;39558;52.028;8.536;2023-02-24T10:22:48;2.17;;;0.40;;
53654;SDS011;39558;52.028;8.536;2023-02-24T10:25:21;2.13;;;0.68;;
53654;SDS011;39558;52.028;8.536;2023-02-24T10:27:58;2.13;;;0.68;;
53654;SDS011;39558;52.028;8.536;2023-02-24T10:33:04;1.50;;;0.43;;
53654;SDS011;39558;52.028;8.536;2023-02-24T10:35:30;1.70;;;0.40;;
53654;SDS011;39558;52.028;8.536;2023-02-24T10:37:57;2.03;;;0.50;;
53654;SDS011;39558;52.028;8.536;2023-02-24T10:40:29;3.63;;;0.82;;
53654;SDS011;39558;52.028;8.536;2023-02-24T10:43:09;3.55;;;0.60;;
53654;SDS011;39558;52.028;8.536;2023-02-24T10:45:39;1.23;;;0.40;;
53654;SDS011;39558;52.028;8.536;2023-02-24T10:48:23;2.78;;;0.80;;
53654;SDS011;39558;52.028;8.536;2023-02-24T10:50:51;2.90;;;0.70;;
53654;SDS011;39558;52.028;8.536;2023-02-24T10:53:18;2.15;;;0.60;;
53654;SDS011;39558;52.028;8.536;2023-02-24T10:56:09;2.17;;;0.50;;
53654;SDS011;39558;52.028;8.536;2023-02-24T11:02:06;2.50;;;0.68;;
53654;SDS011;39558;52.028;8.536;2023-02-24T11:04:51;2.75;;;0.50;;
53654;SDS011;39558;52.028;8.536;2023-02-24T11:07:23;2.17;;;0.52;;
53654;SDS011;39558;52.028;8.536;2023-02-24T11:10:14;1.90;;;0.47;;
53654;SDS011;39558;52.028;8.536;2023-02-24T11:12:49;3.22;;;0.47;;
53654;SDS011;39558;52.028;8.536;2023-02-24T11:15:35;0.98;;;0.38;;
53654;SDS011;39558;52.028;8.536;2023-02-24T11:18:25;2.28;;;0.80;;
53654;SDS011;39558;52.028;8.536;2023-02-24T11:20:59;5.20;;;1.00;;
53654;SDS011;39558;52.028;8.536;2023-02-24T11:23:27;4.07;;;0.50;;
53654;SDS011;39558;52.028;8.536;2023-02-24T11:28:58;1.35;;;0.30;;
53654;SDS011;39558;52.028;8.536;2023-02-24T11:34:09;1.80;;;0.38;;
53654;SDS011;39558;52.028;8.536;2023-02-24T11:36:58;1.35;;;0.30;;
53654;SDS011;39558;52.028;8.536;2023-02-24T11:39:38;1.23;;;0.30;;
53654;SDS011;39558;52.028;8.536;2023-02-24T11:42:08;2.53;;;0.50;;
53654;SDS011;39558;52.028;8.536;2023-02-24T11:47:11;2.60;;;0.73;;
53654;SDS011;39558;52.028;8.536;2023-02-24T11:49:42;2.70;;;0.70;;
53654;SDS011;39558;52.028;8.536;2023-02-24T11:52:11;1.58;;;0.50;;
53654;SDS011;39558;52.028;8.536;2023-02-24T11:54:41;3.05;;;0.43;;
53654;SDS011;39558;52.028;8.536;2023-02-24T11:57:16;1.65;;;0.43;;
53654;SDS011;39558;52.028;8.536;2023-02-24T11:59:45;2.65;;;0.40;;
53654;SDS011;39558;52.028;8.536;2023-02-24T12:02:29;1.98;;;0.50;;
53654;SDS011;39558;52.028;8.536;2023-02-24T12:05:14;1.90;;;0.47;;
53654;SDS011;39558;52.028;8.536;2023-02-24T12:07:51;1.27;;;0.47;;
53654;SDS011;39558;52.028;8.536;2023-02-24T12:10:26;0.63;;;0.20;;
53654;SDS011;39558;52.028;8.536;2023-02-24T12:12:57;1.70;;;0.38;;
53654;SDS011;39558;52.028;8.536;2023-02-24T12:15:27;2.55;;;0.40;;
53654;SDS011;39558;52.028;8.536;2023-02-24T12:18:10;0.93;;;0.22;;
53654;SDS011;39558;52.028;8.536;2023-02-24T12:20:39;1.45;;;0.38;;
53654;SDS011;39558;52.028;8.536;2023-02-24T12:25:40;3.65;;;0.40;;
53654;SDS011;39558;52.028;8.536;2023-02-24T12:28:13;1.75;;;0.47;;
53654;SDS011;39558;52.028;8.536;2023-02-24T12:33:44;1.95;;;0.25;;
53654;SDS011;39558;52.028;8.536;2023-02-24T12:39:00;1.48;;;0.43;;
53654;SDS011;39558;52.028;8.536;2023-02-24T12:44:51;1.77;;;0.40;;
53654;SDS011;39558;52.028;8.536;2023-02-24T12:47:23;1.08;;;0.20;;
53654;SDS011;39558;52.028;8.536;2023-02-24T12:50:08;0.70;;;0.20;;
53654;SDS011;39558;52.028;8.536;2023-02-24T12:52:39;1.38;;;0.30;;
53654;SDS011;39558;52.028;8.536;2023-02-24T13:08:30;1.52;;;0.47;;
53654;SDS011;39558;52.028;8.536;2023-02-24T13:11:07;0.98;;;0.40;;
53654;SDS011;39558;52.028;8.536;2023-02-24T13:13:42;2.20;;;0.30;;
53654;SDS011;39558;52.028;8.536;2023-02-24T13:16:12;1.38;;;0.47;;
53654;SDS011;39558;52.028;8.536;2023-02-24T13:18:38;0.93;;;0.22;;
53654;SDS011;39558;52.028;8.536;2023-02-24T13:23:38;1.33;;;0.30;;
53654;SDS011;39558;52.028;8.536;2023-02-24T13:26:05;2.35;;;0.63;;
53654;SDS011;39558;52.028;8.536;2023-02-24T13:28:32;0.47;;;0.20;;
53654;SDS011;39558;52.028;8.536;2023-02-24T13:31:08;0.65;;;0.32;;
53654;SDS011;39558;52.028;8.536;2023-02-24T13:33:37;0.95;;;0.20;;
53654;SDS011;39558;52.028;8.536;2023-02-24T13:36:08;0.77;;;0.22;;
53654;SDS011;39558;52.028;8.536;2023-02-24T13:38:35;3.15;;;0.47;;
53654;SDS011;39558;52.028;8.536;2023-02-24T13:41:06;1.50;;;0.47;;
53654;SDS011;39558;52.028;8.536;2023-02-24T13:43:32;0.63;;;0.20;;
53654;SDS011;39558;52.028;8.536;2023-02-24T13:46:02;1.00;;;0.30;;
53654;SDS011;39558;52.028;8.536;2023-02-24T13:48:35;0.47;;;0.20;;
53654;SDS011;39558;52.028;8.536;2023-02-24T13:53:52;0.50;;;0.15;;
53654;SDS011;39558;52.028;8.536;2023-02-24T13:56:27;0.60;;;0.20;;
53654;SDS011;39558;52.028;8.536;2023-02-24T13:59:10;0.95;;;0.20;;
53654;SDS011;39558;52.028;8.536;2023-02-24T14:01:46;1.02;;;0.30;;
53654;SDS011;39558;52.028;8.536;2023-02-24T14:04:21;2.00;;;0.32;;
53654;SDS011;39558;52.028;8.536;2023-02-24T14:06:48;0.80;;;0.22;;
53654;SDS011;39558;52.028;8.536;2023-02-24T14:09:16;0.47;;;0.22;;
53654;SDS011;39558;52.028;8.536;2023-02-24T14:11:48;0.52;;;0.20;;
53654;SDS011;39558;52.028;8.536;2023-02-24T14:14:15;1.52;;;0.43;;
53654;SDS011;39558;52.028;8.536;2023-02-24T14:16:42;1.08;;;0.20;;
53654;SDS011;39558;52.028;8.536;2023-02-24T14:19:11;1.73;;;0.75;;
53654;SDS011;39558;52.028;8.536;2023-02-24T14:21:45;2.50;;;0.70;;
53654;SDS011;39558;52.028;8.536;2023-02-24T14:24:11;1.73;;;0.38;;
53654;SDS011;39558;52.028;8.536;2023-02-24T14:26:51;1.23;;;0.30;;
53654;SDS011;39558;52.028;8.536;2023-02-24T14:29:18;2.87;;;0.40;;
53654;SDS011;39558;52.028;8.536;2023-02-24T14:31:51;0.77;;;0.38;;
53654;SDS011;39558;52.028;8.536;2023-02-24T14:34:19;1.13;;;0.28;;
53654;SDS011;39558;52.028;8.536;2023-02-24T14:36:45;2.33;;;0.40;;
53654;SDS011;39558;52.028;8.536;2023-02-24T14:39:16;2.10;;;0.30;;
53654;SDS011;39558;52.028;8.536;2023-02-24T14:41:42;2.40;;;0.35;;
53654;SDS011;39558;52.028;8.536;2023-02-24T14:44:17;1.05;;;0.22;;
53654;SDS011;39558;52.028;8.536;2023-02-24T14:46:50;2.45;;;0.40;;
53654;SDS011;39558;52.028;8.536;2023-02-24T14:49:18;0.95;;;0.20;;
53654;SDS011;39558;52.028;8.536;2023-02-24T14:51:45;1.05;;;0.30;;
53654;SDS011;39558;52.028;8.536;2023-02-24T14:54:13;0.98;;;0.20;;
53654;SDS011;39558;52.028;8.536;2023-02-24T14:56:40;0.75;;;0.20;;
53654;SDS011;39558;52.028;8.536;2023-02-24T14:59:07;0.90;;;0.25;;
53654;SDS011;39558;52.028;8.536;2023-02-24T15:01:44;1.15;;;0.30;;
53654;SDS011;39558;52.028;8.536;2023-02-24T15:04:14;0.80;;;0.30;;
53654;SDS011;39558;52.028;8.536;2023-02-24T15:06:40;0.98;;;0.22;;
53654;SDS011;39558;52.028;8.536;2023-02-24T15:09:15;2.05;;;0.30;;
53654;SDS011;39558;52.028;8.536;2023-02-24T15:11:44;0.98;;;0.30;;
53654;SDS011;39558;52.028;8.536;2023-02-24T15:14:21;1.17;;;0.22;;
53654;SDS011;39558;52.028;8.536;2023-02-24T15:16:50;1.50;;;0.47;;
53654;SDS011;39558;52.028;8.536;2023-02-24T15:19:23;0.85;;;0.22;;
53654;SDS011;39558;52.028;8.536;2023-02-24T15:21:50;1.08;;;0.35;;
53654;SDS011;39558;52.028;8.536;2023-02-24T15:24:17;1.75;;;0.28;;
53654;SDS011;39558;52.028;8.536;2023-02-24T15:29:23;0.30;;;0.10;;
53654;SDS011;39558;52.028;8.536;2023-02-24T15:31:52;1.40;;;0.25;;
53654;SDS011;39558;52.028;8.536;2023-02-24T15:34:20;1.58;;;0.35;;
53654;SDS011;39558;52.028;8.536;2023-02-24T15:36:47;5.55;;;0.40;;
53654;SDS011;39558;52.028;8.536;2023-02-24T15:39:16;1.13;;;0.25;;
53654;SDS011;39558;52.028;8.536;2023-02-24T15:41:47;4.93;;;0.45;;
53654;SDS011;39558;52.028;8.536;2023-02-24T15:44:23;1.13;;;0.30;;
53654;SDS011;39558;52.028;8.536;2023-02-24T15:46:50;1.05;;;0.40;;
53654;SDS011;39558;52.028;8.536;2023-02-24T15:49:16;0.82;;;0.20;;
53654;SDS011;39558;52.028;8.536;2023-02-24T15:51:42;2.17;;;0.57;;
53654;SDS011;39558;52.028;8.536;2023-02-24T15:54:17;1.00;;;0.35;;
53654;SDS011;39558;52.028;8.536;2023-02-24T15:56:45;0.40;;;0.22;;
53654;SDS011;39558;52.028;8.536;2023-02-24T15:59:12;1.60;;;0.20;;
53654;SDS011;39558;52.028;8.536;2023-02-24T16:01:38;1.23;;;0.20;;
53654;SDS011;39558;52.028;8.536;2023-02-24T16:04:04;1.40;;;0.60;;
53654;SDS011;39558;52.028;8.536;2023-02-24T16:06:33;1.73;;;0.20;;
53654;SDS011;39558;52.028;8.536;2023-02-24T16:09:05;2.35;;;0.40;;
53654;SDS011;39558;52.028;8.536;2023-02-24T16:11:31;2.20;;;0.38;;
53654;SDS011;39558;52.028;8.536;2023-02-24T16:13:59;0.80;;;0.20;;
53654;SDS011;39558;52.028;8.536;2023-02-24T16:16:26;0.90;;;0.30;;
53654;SDS011;39558;52.028;8.536;2023-02-24T16:18:52;3.38;;;0.22;;
53654;SDS011;39558;52.028;8.536;2023-02-24T16:21:18;1.10;;;0.20;;
53654;SDS011;39558;52.028;8.536;2023-02-24T16:23:44;0.50;;;0.17;;
53654;SDS011;39558;52.028;8.536;2023-02-24T16:26:14;0.90;;;0.20;;
53654;SDS011;39558;52.028;8.536;2023-02-24T16:31:07;0.55;;;0.20;;
53654;SDS011;39558;52.028;8.536;2023-02-24T16:33:33;0.65;;;0.22;;